HGS weather

Grupo Rio San Juan Heliport
Reynosa, Tamaulipas, Mexico

Public forecast

Using degrees Celsius for public forecast. Weather courtesy of forecast.io.

Closest aviation weather report (METAR) to Grupo Rio San Juan Heliport

Closest report is General Lucio Blanco International Airport, 8.1 nm (15.0 km) ESE. Retrieved 2019/10/14 19:43 UTC (0 seconds ago):

MMRX 141943Z 10010KT 10SM FEW020 SCT250 34/16 A2988 RMK 8/105 HZY

Closest aviation forecast (TAF) to Grupo Rio San Juan Heliport

Closest forecast is General Lucio Blanco International Airport, 8.1 nm (15.0 km) ESE. Retrieved 2019/10/14 18:33 UTC (34 minutes ago):

TAF MMRX 141630Z 1418/1518 15008KT P6SM SCT020 BECMG 1420/1421 13015KT FM150200 13012KT P6SM SKC BECMG 1505/1506 15010KT FM151000 15008KT 5SM HZ BKN015 TEMPO 1511/1515 3SM BR HZ FM151600 15012KT 6SM HZ SCT020